Ettrick, Wisconsin
Current Conditions -  °F | °C
As of 10:53 PM on Thursday 30 Oct 2014 (Local Time) from KLSE Reporting Station
Overcast Overcast  
Wind Chill:   Ceiling: 5500
Heat Index:   Visibility: 10mi
Dew Point: -2°   Wind: 24mph
Humidity: 55%   Direction: 340°NNW
Pressure: 30.16"   Gusts: 35mph
Location:  44.17°N, 91.27°W
Report Text: KLSE 310353Z AUTO 34021G30KT 10SM OVC055 07/M02 A3016 RMK AO2 PK WND 33034/0340 SLP220 T00671017
Loading
Personal Weather Stations






























Interactive Weather Map
Tropical Storm Tracking
New forecast layout! Learn more

10-Day Weather Forecast

Advertisements
Track Severe Weather on mobile